createdAt,value
2023-05-19T00:00:26.368Z,82.48
2023-05-19T00:01:26.354Z,83.20
2023-05-19T00:02:26.439Z,82.65
2023-05-19T00:03:26.375Z,81.31
2023-05-19T00:04:26.315Z,81.52
2023-05-19T00:05:26.318Z,81.52
2023-05-19T00:06:26.288Z,81.42
2023-05-19T00:07:26.328Z,79.26
2023-05-19T00:08:26.261Z,79.36
2023-05-19T00:09:26.248Z,80.28
2023-05-19T00:10:26.236Z,80.49
2023-05-19T00:11:26.229Z,80.22
2023-05-19T00:12:26.224Z,80.73
2023-05-19T00:13:26.199Z,81.35
2023-05-19T00:14:26.215Z,81.76
2023-05-19T00:15:26.178Z,82.38
2023-05-19T00:16:26.232Z,81.82
2023-05-19T00:17:26.186Z,80.86
2023-05-19T00:18:26.134Z,80.04
2023-05-19T00:19:26.305Z,79.73
2023-05-19T00:20:26.119Z,79.84
2023-05-19T00:21:26.094Z,79.69
2023-05-19T00:22:26.079Z,78.77
2023-05-19T00:23:26.078Z,77.85
2023-05-19T00:24:26.054Z,79.11
2023-05-19T00:25:26.046Z,78.29
2023-05-19T00:26:26.027Z,78.91
2023-05-19T00:27:26.018Z,79.11
2023-05-19T00:28:26.007Z,79.87
2023-05-19T00:29:25.992Z,80.08
2023-05-19T00:30:26.003Z,79.77
2023-05-19T00:31:26.034Z,79.46
2023-05-19T00:32:25.973Z,80.12
2023-05-19T00:33:25.938Z,79.91
2023-05-19T00:34:25.930Z,79.29
2023-05-19T00:35:25.910Z,80.01
2023-05-19T00:36:25.906Z,80.56
2023-05-19T00:37:25.887Z,81.90
2023-05-19T00:38:25.882Z,82.35
2023-05-19T00:39:25.872Z,83.48
2023-05-19T00:40:25.856Z,83.79
2023-05-19T00:41:25.836Z,82.97
2023-05-19T00:42:25.825Z,82.56
2023-05-19T00:43:25.809Z,82.87
2023-05-19T00:44:25.804Z,82.66
2023-05-19T00:45:25.788Z,83.01
2023-05-19T00:46:25.877Z,84.24
2023-05-19T00:47:25.789Z,84.66
2023-05-19T00:48:25.748Z,84.72
2023-05-19T00:49:25.733Z,83.89
2023-05-19T00:50:25.723Z,82.76
2023-05-19T00:51:25.716Z,82.66
2023-05-19T00:52:25.703Z,82.56
2023-05-19T00:53:25.694Z,83.11
2023-05-19T00:54:25.674Z,82.91
2023-05-19T00:55:25.657Z,83.11
2023-05-19T00:56:25.651Z,83.66
2023-05-19T00:57:25.632Z,83.77
2023-05-19T00:58:25.640Z,84.59
2023-05-19T00:59:25.603Z,85.41
2023-05-19T01:00:25.607Z,85.41
2023-05-19T01:01:25.592Z,85.41
2023-05-19T01:02:25.695Z,85.21
2023-05-19T01:03:25.655Z,85.52
2023-05-19T01:04:25.560Z,84.49
2023-05-19T01:05:25.538Z,84.08
2023-05-19T01:06:25.519Z,83.97
2023-05-19T01:07:25.508Z,82.78
2023-05-19T01:08:25.496Z,83.70
2023-05-19T01:09:25.482Z,84.83
2023-05-19T01:10:25.468Z,83.53
2023-05-19T01:11:25.456Z,83.33
2023-05-19T01:12:25.444Z,83.88
2023-05-19T01:13:25.431Z,84.30
2023-05-19T01:14:25.418Z,84.40
2023-05-19T01:15:25.407Z,85.16
2023-05-19T01:16:25.408Z,86.40
2023-05-19T01:17:25.433Z,86.44
2023-05-19T01:18:25.395Z,86.13
2023-05-19T01:19:25.600Z,86.23
2023-05-19T01:20:25.343Z,86.44
2023-05-19T01:21:25.331Z,86.59
2023-05-19T01:22:25.316Z,88.30
2023-05-19T01:23:25.307Z,89.85
2023-05-19T01:24:25.293Z,89.64
2023-05-19T01:25:25.289Z,88.81
2023-05-19T01:26:25.267Z,89.02
2023-05-19T01:27:25.254Z,89.12
2023-05-19T01:28:25.239Z,89.23
2023-05-19T01:29:25.226Z,90.16
2023-05-19T01:30:25.210Z,90.26
2023-05-19T01:31:25.262Z,90.99
2023-05-19T01:32:25.207Z,91.40
2023-05-19T01:33:25.181Z,91.40
2023-05-19T01:34:25.197Z,92.23
2023-05-19T01:35:25.158Z,92.43
2023-05-19T01:36:25.138Z,91.91
2023-05-19T01:37:25.124Z,91.81
2023-05-19T01:38:25.116Z,92.23
2023-05-19T01:39:25.104Z,92.54
2023-05-19T01:40:25.092Z,92.33
2023-05-19T01:41:25.079Z,93.36
2023-05-19T01:42:25.065Z,93.05
2023-05-19T01:43:25.050Z,92.48
2023-05-19T01:44:25.037Z,93.46
2023-05-19T01:45:25.023Z,94.18
2023-05-19T01:46:25.087Z,94.60
2023-05-19T01:47:25.028Z,94.70
2023-05-19T01:48:24.987Z,94.60
2023-05-19T01:49:24.972Z,94.35
2023-05-19T01:50:24.987Z,93.73
2023-05-19T01:51:24.949Z,93.32
2023-05-19T01:52:24.934Z,93.01
2023-05-19T01:53:24.919Z,92.59
2023-05-19T01:54:24.907Z,92.02
2023-05-19T01:55:24.891Z,92.33
2023-05-19T01:56:24.877Z,92.95
2023-05-19T01:57:24.871Z,93.11
2023-05-19T01:58:24.854Z,93.15
2023-05-19T02:00:24.830Z,92.23
2023-05-19T02:01:24.887Z,92.43
2023-05-19T02:02:24.826Z,92.48
2023-05-19T02:03:24.800Z,93.15
2023-05-19T02:04:24.863Z,93.98
2023-05-19T02:05:24.760Z,94.39
2023-05-19T02:06:24.780Z,94.81
2023-05-19T02:07:24.737Z,95.28
2023-05-19T02:08:24.741Z,95.07
2023-05-19T02:09:24.707Z,95.07
2023-05-19T02:10:24.704Z,95.07
2023-05-19T02:11:24.685Z,94.72
2023-05-19T02:12:24.668Z,94.62
2023-05-19T02:13:24.664Z,94.41
2023-05-19T02:14:24.641Z,94.20
2023-05-19T02:15:24.643Z,94.31
2023-05-19T02:16:24.759Z,94.20
2023-05-19T02:17:24.704Z,94.20
2023-05-19T02:18:24.596Z,94.10
2023-05-19T02:19:24.738Z,93.95
2023-05-19T02:20:24.582Z,93.85
2023-05-19T02:21:24.550Z,93.85
2023-05-19T02:22:24.558Z,92.92
2023-05-19T02:23:24.518Z,91.99
2023-05-19T02:24:24.507Z,91.27
2023-05-19T02:25:24.501Z,90.86
2023-05-19T02:26:24.493Z,90.28
2023-05-19T02:27:24.486Z,89.35
2023-05-19T02:28:24.461Z,88.84
2023-05-19T02:29:24.446Z,88.57
2023-05-19T02:30:24.430Z,88.67
2023-05-19T02:31:24.448Z,88.81
2023-05-19T02:32:24.416Z,89.17
2023-05-19T02:33:24.395Z,89.58
2023-05-19T02:34:24.376Z,90.20
2023-05-19T02:35:24.364Z,90.14
2023-05-19T02:36:24.362Z,90.24
2023-05-19T02:37:24.335Z,90.45
2023-05-19T02:38:24.353Z,90.80
2023-05-19T02:39:24.314Z,91.21
2023-05-19T02:40:24.310Z,91.83
2023-05-19T02:41:24.282Z,92.15
2023-05-19T02:42:24.279Z,92.35
2023-05-19T02:43:24.258Z,93.28
2023-05-19T02:44:24.247Z,94.11
2023-05-19T02:45:24.262Z,94.11
2023-05-19T02:46:24.280Z,93.80
2023-05-19T02:47:24.216Z,94.01
2023-05-19T02:48:24.192Z,94.11
2023-05-19T02:49:24.177Z,93.74
2023-05-19T02:50:24.166Z,93.59
2023-05-19T02:51:24.147Z,93.12
2023-05-19T02:52:24.136Z,93.43
2023-05-19T02:53:24.130Z,93.43
2023-05-19T02:54:24.146Z,93.43
2023-05-19T02:55:24.115Z,93.43
2023-05-19T02:56:24.100Z,93.32
2023-05-19T02:57:24.094Z,93.64
2023-05-19T02:58:24.063Z,93.37
2023-05-19T02:59:25.519Z,94.09
2023-05-19T03:00:24.040Z,93.89
2023-05-19T03:01:24.025Z,94.51
2023-05-19T03:02:24.001Z,94.09
2023-05-19T03:03:24.214Z,93.89
2023-05-19T03:04:23.979Z,93.93
2023-05-19T03:05:23.968Z,93.62
2023-05-19T03:06:23.953Z,93.72
2023-05-19T03:07:23.936Z,93.82
2023-05-19T03:08:23.928Z,93.82
2023-05-19T03:09:23.928Z,93.56
2023-05-19T03:10:23.928Z,92.93
2023-05-19T03:11:23.887Z,93.45
2023-05-19T03:12:23.877Z,94.18
2023-05-19T03:13:23.878Z,93.97
2023-05-19T03:14:24.116Z,94.70
2023-05-19T03:15:23.837Z,95.11
2023-05-19T03:16:23.858Z,95.32
2023-05-19T03:17:23.887Z,95.73
2023-05-19T03:18:23.857Z,95.84
2023-05-19T03:19:23.845Z,96.11
2023-05-19T03:20:23.773Z,95.53
2023-05-19T03:21:23.758Z,96.20
2023-05-19T03:22:23.748Z,96.31
2023-05-19T03:23:23.733Z,96.31
2023-05-19T03:24:23.725Z,95.94
2023-05-19T03:25:23.710Z,95.73
2023-05-19T03:26:23.723Z,95.53
2023-05-19T03:27:23.687Z,95.73
2023-05-19T03:28:23.690Z,96.67
2023-05-19T03:29:23.666Z,96.98
2023-05-19T03:30:23.651Z,96.98
2023-05-19T03:31:23.636Z,97.08
2023-05-19T03:32:23.700Z,96.67
2023-05-19T03:33:23.855Z,96.46
2023-05-19T03:34:23.601Z,96.77
2023-05-19T03:35:23.587Z,97.60
2023-05-19T03:36:23.575Z,97.76
2023-05-19T03:37:23.573Z,97.86
2023-05-19T03:38:23.551Z,97.97
2023-05-19T03:39:23.547Z,98.44
2023-05-19T03:40:23.524Z,99.02
2023-05-19T03:41:23.515Z,99.23
2023-05-19T03:42:23.578Z,99.07
2023-05-19T03:43:23.482Z,98.87
2023-05-19T03:44:23.473Z,98.76
2023-05-19T03:45:23.473Z,98.55
2023-05-19T03:46:23.559Z,98.51
2023-05-19T03:47:23.460Z,98.20
2023-05-19T03:48:23.419Z,97.99
2023-05-19T03:49:23.407Z,97.48
2023-05-19T03:50:23.414Z,97.58
2023-05-19T03:51:23.409Z,97.58
2023-05-19T03:52:23.367Z,97.27
2023-05-19T03:53:23.352Z,97.27
2023-05-19T03:54:23.353Z,96.92
2023-05-19T03:55:23.327Z,96.82
2023-05-19T03:56:23.311Z,96.46
2023-05-19T03:57:23.298Z,96.05
2023-05-19T03:58:23.312Z,95.42
2023-05-19T03:59:23.276Z,94.18
2023-05-19T04:00:23.259Z,92.99
2023-05-19T04:01:23.262Z,91.85
2023-05-19T04:02:23.293Z,91.69
2023-05-19T04:03:23.340Z,91.58
2023-05-19T04:04:23.255Z,91.58
2023-05-19T04:05:23.198Z,92.25
2023-05-19T04:06:23.187Z,92.56
2023-05-19T04:07:23.174Z,92.66
2023-05-19T04:08:23.157Z,92.60
2023-05-19T04:09:23.139Z,93.59
2023-05-19T04:10:23.140Z,95.04
2023-05-19T04:11:23.121Z,95.93
2023-05-19T04:12:23.105Z,96.13
2023-05-19T04:13:23.088Z,95.83
2023-05-19T04:14:23.103Z,95.31
2023-05-19T04:15:23.068Z,94.79
2023-05-19T04:16:23.111Z,94.21
2023-05-19T04:17:23.066Z,94.07
2023-05-19T04:18:23.027Z,93.90
2023-05-19T04:19:23.113Z,94.01
2023-05-19T04:20:22.998Z,94.11
2023-05-19T04:21:22.990Z,94.11
2023-05-19T04:22:22.971Z,93.90
2023-05-19T04:23:22.965Z,93.65
2023-05-19T04:24:22.949Z,93.07
2023-05-19T04:25:22.936Z,92.93
2023-05-19T04:26:22.923Z,92.25
2023-05-19T04:27:22.907Z,91.73
2023-05-19T04:28:22.901Z,91.42
2023-05-19T04:29:22.885Z,91.42
2023-05-19T04:30:22.936Z,91.63
2023-05-19T04:31:22.919Z,92.66
2023-05-19T04:32:22.864Z,93.55
2023-05-19T04:33:22.833Z,94.43
2023-05-19T04:34:22.826Z,94.43
2023-05-19T04:35:22.803Z,94.60
2023-05-19T04:36:22.794Z,94.25
2023-05-19T04:37:22.781Z,93.17
2023-05-19T04:38:22.775Z,92.04
2023-05-19T04:39:22.759Z,90.96
2023-05-19T04:40:22.747Z,91.27
2023-05-19T04:41:22.728Z,91.54
2023-05-19T04:42:22.718Z,91.85
2023-05-19T04:43:22.708Z,91.70
2023-05-19T04:44:22.697Z,91.25
2023-05-19T04:45:22.678Z,89.77
2023-05-19T04:46:22.701Z,89.25
2023-05-19T04:47:22.686Z,88.69
2023-05-19T04:48:22.647Z,87.42
2023-05-19T04:49:22.644Z,87.25
2023-05-19T04:50:22.618Z,87.73
2023-05-19T04:51:22.602Z,87.05
2023-05-19T04:52:22.600Z,87.52
2023-05-19T04:53:22.574Z,87.28
2023-05-19T04:54:22.569Z,85.59
2023-05-19T04:55:22.550Z,84.11
2023-05-19T04:56:22.539Z,82.94
2023-05-19T04:57:22.522Z,81.94
2023-05-19T04:58:22.514Z,80.06
2023-05-19T04:59:22.496Z,79.14
2023-05-19T05:00:22.503Z,78.63
2023-05-19T05:01:22.651Z,78.59
2023-05-19T05:02:22.685Z,78.38
2023-05-19T05:03:22.579Z,78.28
2023-05-19T05:04:22.434Z,78.08
2023-05-19T05:05:22.432Z,77.56
2023-05-19T05:06:22.400Z,77.36
2023-05-19T05:07:22.396Z,77.91
2023-05-19T05:08:22.375Z,78.63
2023-05-19T05:09:22.373Z,78.97
2023-05-19T05:10:22.354Z,79.07
2023-05-19T05:11:22.347Z,78.97
2023-05-19T05:12:22.323Z,81.10
2023-05-19T05:13:22.355Z,82.37
2023-05-19T05:14:22.296Z,82.37
2023-05-19T05:15:22.293Z,82.61
2023-05-19T05:16:22.346Z,82.98
2023-05-19T05:17:22.354Z,83.56
2023-05-19T05:18:22.273Z,82.43
2023-05-19T05:19:22.355Z,81.84
2023-05-19T05:20:22.220Z,80.84
2023-05-19T05:21:22.202Z,78.55
2023-05-19T05:22:22.190Z,77.39
2023-05-19T05:23:22.182Z,78.00
2023-05-19T05:24:22.168Z,77.42
2023-05-19T05:25:22.153Z,76.47
2023-05-19T05:26:22.140Z,74.35
2023-05-19T05:27:22.138Z,72.85
2023-05-19T05:28:22.113Z,72.10
2023-05-19T05:29:22.101Z,72.51
2023-05-19T05:31:22.072Z,70.95
2023-05-19T05:32:22.123Z,71.77
2023-05-19T05:33:22.178Z,71.02
2023-05-19T05:34:22.178Z,69.79
2023-05-19T05:35:22.040Z,70.51
2023-05-19T05:36:22.058Z,69.97
2023-05-19T05:37:22.042Z,69.18
2023-05-19T05:38:22.007Z,68.75
2023-05-19T05:39:21.979Z,66.27
2023-05-19T05:40:21.956Z,66.13
2023-05-19T05:41:21.953Z,67.46
2023-05-19T05:42:21.931Z,67.05
2023-05-19T05:43:21.918Z,66.91
2023-05-19T05:44:21.904Z,69.86
2023-05-19T05:45:21.890Z,70.81
2023-05-19T05:46:21.884Z,69.36
2023-05-19T05:47:21.873Z,68.95
2023-05-19T05:48:21.852Z,68.98
2023-05-19T05:49:21.843Z,69.18
2023-05-19T05:50:21.862Z,69.28
2023-05-19T05:51:21.818Z,68.98
2023-05-19T05:52:21.803Z,68.67
2023-05-19T05:53:21.790Z,69.36
2023-05-19T05:54:21.775Z,68.75
2023-05-19T05:55:21.765Z,66.99
2023-05-19T05:56:21.750Z,65.63
2023-05-19T05:57:21.738Z,65.13
2023-05-19T05:58:21.723Z,64.89
2023-05-19T05:59:21.715Z,66.46
2023-05-19T06:01:21.691Z,62.64
2023-05-19T06:02:21.701Z,62.38
2023-05-19T06:03:21.853Z,59.72
2023-05-19T06:04:21.658Z,59.26
2023-05-19T06:05:21.696Z,56.90
2023-05-19T06:06:21.681Z,57.99
2023-05-19T06:07:21.641Z,56.48
2023-05-19T06:08:21.597Z,56.61
2023-05-19T06:09:21.587Z,56.37
2023-05-19T06:10:21.590Z,56.04
2023-05-19T06:11:21.560Z,55.38
2023-05-19T06:12:21.545Z,54.15
2023-05-19T06:13:21.550Z,52.61
2023-05-19T06:14:21.519Z,52.81
2023-05-19T06:15:21.520Z,52.89
2023-05-19T06:16:21.566Z,51.17
2023-05-19T06:17:21.481Z,51.53
2023-05-19T06:18:21.471Z,52.23
2023-05-19T06:19:21.514Z,52.61
2023-05-19T06:20:21.499Z,51.48
2023-05-19T06:21:21.431Z,51.68
2023-05-19T06:22:21.461Z,51.45
2023-05-19T06:23:21.417Z,50.35
2023-05-19T06:24:21.390Z,49.92
2023-05-19T06:25:21.380Z,49.49
2023-05-19T06:26:21.366Z,49.39
2023-05-19T06:27:21.356Z,50.55
2023-05-19T06:28:21.349Z,50.15
2023-05-19T06:29:21.340Z,51.61
2023-05-19T06:30:21.327Z,51.37
2023-05-19T06:31:21.327Z,51.20
2023-05-19T06:32:21.404Z,51.70
2023-05-19T06:33:21.280Z,51.28
2023-05-19T06:34:21.265Z,51.28
2023-05-19T06:36:21.239Z,50.77
2023-05-19T06:37:21.228Z,51.08
2023-05-19T06:38:21.249Z,50.90
2023-05-19T06:39:21.205Z,51.28
2023-05-19T06:40:21.194Z,51.20
2023-05-19T06:41:21.178Z,52.31
2023-05-19T06:42:21.166Z,51.68
2023-05-19T06:43:21.157Z,51.36
2023-05-19T06:44:21.290Z,50.40
2023-05-19T06:45:21.126Z,49.70
2023-05-19T06:46:21.141Z,49.59
2023-05-19T06:47:21.102Z,48.97
2023-05-19T06:48:21.082Z,48.97
2023-05-19T06:49:21.074Z,48.77
2023-05-19T06:50:21.060Z,48.24
2023-05-19T06:51:21.049Z,48.02
2023-05-19T06:52:21.034Z,47.35
2023-05-19T06:53:21.024Z,45.80
2023-05-19T06:54:21.039Z,45.28
2023-05-19T06:55:21.000Z,44.55
2023-05-19T06:56:20.983Z,44.23
2023-05-19T06:57:20.972Z,44.41
2023-05-19T06:58:20.958Z,43.91
2023-05-19T06:59:20.953Z,44.47
2023-05-19T07:00:23.782Z,46.22
2023-05-19T07:01:20.964Z,46.92
2023-05-19T07:02:20.915Z,46.22
2023-05-19T07:03:20.993Z,46.32
2023-05-19T07:04:20.880Z,46.32
2023-05-19T07:05:20.879Z,46.02
2023-05-19T07:06:20.858Z,46.32
2023-05-19T07:07:20.844Z,46.32
2023-05-19T07:08:20.843Z,45.80
2023-05-19T07:09:20.820Z,44.86
2023-05-19T07:10:20.833Z,44.43
2023-05-19T07:11:20.793Z,43.57
2023-05-19T07:12:20.778Z,43.17
2023-05-19T07:13:20.767Z,42.77
2023-05-19T07:14:20.753Z,42.17
2023-05-19T07:15:20.744Z,41.81
2023-05-19T07:16:20.769Z,41.13
2023-05-19T07:17:20.729Z,42.27
2023-05-19T07:18:20.704Z,42.39
2023-05-19T07:19:20.827Z,43.11
2023-05-19T07:20:20.680Z,42.83
2023-05-19T07:21:20.673Z,43.11
2023-05-19T07:22:20.654Z,42.47
2023-05-19T07:23:20.652Z,41.97
2023-05-19T07:24:20.628Z,42.15
2023-05-19T07:25:20.617Z,42.67
2023-05-19T07:26:20.631Z,43.09
2023-05-19T07:27:20.590Z,43.29
2023-05-19T07:28:20.576Z,42.77
2023-05-19T07:29:20.568Z,42.55
2023-05-19T07:30:20.549Z,42.03
2023-05-19T07:31:20.558Z,41.53
2023-05-19T07:32:20.647Z,41.43
2023-05-19T07:33:20.518Z,42.39
2023-05-19T07:34:20.496Z,42.91
2023-05-19T07:35:20.544Z,43.83
2023-05-19T07:36:20.480Z,43.63
2023-05-19T07:37:20.463Z,43.65
2023-05-19T07:38:20.457Z,44.47
2023-05-19T07:39:20.467Z,44.28
2023-05-19T07:40:20.424Z,44.07
2023-05-19T07:41:20.412Z,44.05
2023-05-19T07:42:20.458Z,43.75
2023-05-19T07:43:20.387Z,42.81
2023-05-19T07:44:20.373Z,43.53
2023-05-19T07:45:20.365Z,43.91
2023-05-19T07:46:20.501Z,43.19
2023-05-19T07:47:20.332Z,42.15
2023-05-19T07:48:20.320Z,41.83
2023-05-19T07:49:20.311Z,41.75
2023-05-19T07:50:20.298Z,42.39
2023-05-19T07:51:20.285Z,42.37
2023-05-19T07:52:20.274Z,41.25
2023-05-19T07:53:20.273Z,41.89
2023-05-19T07:54:20.245Z,42.59
2023-05-19T07:55:20.233Z,42.17
2023-05-19T07:56:20.221Z,41.87
2023-05-19T07:57:20.212Z,41.79
2023-05-19T07:58:20.224Z,41.35
2023-05-19T07:59:20.190Z,40.71
2023-05-19T08:00:20.166Z,40.11
2023-05-19T08:01:20.163Z,40.19
2023-05-19T08:02:20.177Z,40.19
2023-05-19T08:03:20.291Z,40.53
2023-05-19T08:04:20.196Z,40.11
2023-05-19T08:05:20.108Z,40.29
2023-05-19T08:06:20.094Z,39.44
2023-05-19T08:07:20.084Z,38.34
2023-05-19T08:08:20.074Z,38.40
2023-05-19T08:09:20.058Z,37.91
2023-05-19T08:10:20.058Z,37.57
2023-05-19T08:11:20.044Z,37.46
2023-05-19T08:12:20.022Z,36.96
2023-05-19T08:13:20.008Z,37.47
2023-05-19T08:14:20.033Z,37.61
2023-05-19T08:15:19.990Z,37.57
2023-05-19T08:16:20.012Z,37.09
2023-05-19T08:17:19.968Z,37.18
2023-05-19T08:18:19.956Z,36.66
2023-05-19T08:19:19.994Z,37.28
2023-05-19T08:20:19.924Z,37.63
2023-05-19T08:21:19.921Z,37.53
2023-05-19T08:22:19.899Z,38.34
2023-05-19T08:23:19.896Z,38.11
2023-05-19T08:24:19.882Z,37.47
2023-05-19T08:25:19.911Z,36.54
2023-05-19T08:26:19.855Z,36.63
2023-05-19T08:27:19.841Z,35.93
2023-05-19T08:28:19.830Z,35.45
2023-05-19T08:29:19.821Z,35.52
2023-05-19T08:30:19.845Z,34.97
2023-05-19T08:31:19.824Z,33.73
2023-05-19T08:32:19.798Z,33.20
2023-05-19T08:33:19.776Z,33.93
2023-05-19T08:34:19.761Z,33.27
2023-05-19T08:35:19.748Z,34.92
2023-05-19T08:36:19.732Z,35.75
2023-05-19T08:37:19.723Z,35.24
2023-05-19T08:38:19.709Z,35.96
2023-05-19T08:39:19.709Z,35.75
2023-05-19T08:40:19.683Z,36.58
2023-05-19T08:41:19.674Z,37.20
2023-05-19T08:42:19.664Z,36.98
2023-05-19T08:43:19.653Z,36.07
2023-05-19T08:44:19.638Z,36.05
2023-05-19T08:45:19.627Z,35.55
2023-05-19T08:46:19.656Z,36.56
2023-05-19T08:47:19.604Z,35.45
2023-05-19T08:48:19.598Z,35.77
2023-05-19T08:49:19.579Z,35.98
2023-05-19T08:50:19.561Z,35.49
2023-05-19T08:51:19.552Z,35.88
2023-05-19T08:52:19.552Z,35.79
2023-05-19T08:53:32.408Z,36.60
2023-05-19T08:54:19.516Z,37.05
2023-05-19T08:55:19.503Z,38.30
2023-05-19T08:56:19.491Z,38.38
2023-05-19T08:57:19.481Z,37.75
2023-05-19T08:58:19.465Z,36.85
2023-05-19T08:59:19.458Z,37.03
2023-05-19T09:00:19.440Z,37.23
2023-05-19T09:01:19.505Z,37.15
2023-05-19T09:02:19.451Z,37.24
2023-05-19T09:04:19.551Z,37.54
2023-05-19T09:05:19.449Z,38.04
2023-05-19T09:06:19.392Z,38.34
2023-05-19T09:07:19.358Z,36.73
2023-05-19T09:08:19.345Z,37.09
2023-05-19T09:09:19.335Z,35.80
2023-05-19T09:10:19.315Z,36.13
2023-05-19T09:11:19.310Z,36.95
2023-05-19T09:12:19.295Z,36.41
2023-05-19T09:13:19.282Z,35.90
2023-05-19T09:14:19.269Z,36.08
2023-05-19T09:15:19.262Z,35.14
2023-05-19T09:16:19.294Z,33.85
2023-05-19T09:17:19.232Z,32.72
2023-05-19T09:18:19.258Z,32.41
2023-05-19T09:19:19.267Z,33.48
2023-05-19T09:20:19.210Z,32.99
2023-05-19T09:21:19.187Z,33.00
2023-05-19T09:22:19.183Z,33.10
2023-05-19T09:23:19.158Z,33.40
2023-05-19T09:24:19.158Z,33.19
2023-05-19T09:25:19.174Z,32.87
2023-05-19T09:26:19.125Z,32.89
2023-05-19T09:27:19.110Z,33.27
2023-05-19T09:28:19.100Z,33.68
2023-05-19T09:29:19.087Z,33.06
2023-05-19T09:30:19.115Z,32.55
2023-05-19T09:31:19.069Z,32.55
2023-05-19T09:32:19.096Z,32.74
2023-05-19T09:33:19.086Z,32.42
2023-05-19T09:34:19.059Z,31.72
2023-05-19T09:35:19.012Z,32.38
2023-05-19T09:36:19.006Z,32.81
2023-05-19T09:37:18.990Z,33.30
2023-05-19T09:38:18.976Z,33.40
2023-05-19T09:39:18.962Z,33.02
2023-05-19T09:40:18.981Z,32.53
2023-05-19T09:41:18.937Z,32.09
2023-05-19T09:42:18.929Z,32.99
2023-05-19T09:43:18.913Z,32.29
2023-05-19T09:44:18.907Z,32.38
2023-05-19T09:45:18.891Z,32.69
2023-05-19T09:46:18.892Z,32.00
2023-05-19T09:47:18.860Z,31.39
2023-05-19T09:48:18.854Z,31.78
2023-05-19T09:49:18.841Z,31.56
2023-05-19T09:50:18.891Z,31.85
2023-05-19T09:51:18.821Z,31.74
2023-05-19T09:52:18.806Z,31.34
2023-05-19T09:53:18.800Z,31.34
2023-05-19T09:54:18.779Z,31.34
2023-05-19T09:55:18.778Z,30.14
2023-05-19T09:56:18.753Z,31.16
2023-05-19T09:57:18.747Z,30.83
2023-05-19T09:58:18.744Z,30.62
2023-05-19T09:59:18.718Z,29.84
2023-05-19T10:00:18.702Z,30.15
2023-05-19T10:02:18.701Z,30.05
2023-05-19T10:03:18.672Z,30.26
2023-05-19T10:04:18.659Z,30.04
2023-05-19T10:05:18.726Z,30.52
2023-05-19T10:06:18.675Z,31.06
2023-05-19T10:07:18.628Z,31.91
2023-05-19T10:08:18.610Z,31.80
2023-05-19T10:09:18.594Z,31.81
2023-05-19T10:10:18.585Z,31.43
2023-05-19T10:11:18.581Z,31.95
2023-05-19T10:12:18.557Z,32.24
2023-05-19T10:13:18.548Z,32.53
2023-05-19T10:14:18.530Z,32.03
2023-05-19T10:15:19.612Z,31.31
2023-05-19T10:16:18.526Z,30.70
2023-05-19T10:17:18.495Z,30.18
2023-05-19T10:18:18.483Z,29.79
2023-05-19T10:19:18.513Z,30.17
2023-05-19T10:20:18.454Z,30.48
2023-05-19T10:21:18.451Z,30.60
2023-05-19T10:22:18.459Z,31.80
2023-05-19T10:23:18.418Z,31.10
2023-05-19T10:24:18.403Z,31.50
2023-05-19T10:25:18.397Z,32.00
2023-05-19T10:26:18.386Z,31.01
2023-05-19T10:27:18.373Z,31.40
2023-05-19T10:28:18.355Z,31.53
2023-05-19T10:29:18.343Z,31.22
2023-05-19T10:30:18.437Z,31.34
2023-05-19T10:31:18.319Z,31.25
2023-05-19T10:32:18.367Z,30.94
2023-05-19T10:33:18.414Z,31.09
2023-05-19T10:34:18.283Z,29.99
2023-05-19T10:35:18.279Z,30.51
2023-05-19T10:36:18.257Z,31.53
2023-05-19T10:37:18.242Z,31.52
2023-05-19T10:38:18.268Z,31.32
2023-05-19T10:39:18.231Z,30.38
2023-05-19T10:40:18.213Z,29.87
2023-05-19T10:41:18.195Z,30.07
2023-05-19T10:42:18.188Z,30.15
2023-05-19T10:43:18.178Z,29.86
2023-05-19T10:44:18.177Z,29.37
2023-05-19T10:45:18.165Z,29.46
2023-05-19T10:46:18.165Z,30.28
2023-05-19T10:47:18.182Z,30.49
2023-05-19T10:48:18.123Z,30.79
2023-05-19T10:49:18.105Z,30.27
2023-05-19T10:50:18.096Z,29.97
2023-05-19T10:51:18.085Z,29.74
2023-05-19T10:52:18.067Z,29.84
2023-05-19T10:53:18.090Z,29.15
2023-05-19T10:54:18.178Z,29.46
2023-05-19T10:55:18.067Z,30.46
2023-05-19T10:56:18.018Z,30.15
2023-05-19T10:57:18.009Z,29.27
2023-05-19T10:58:17.994Z,29.07
2023-05-19T10:59:17.981Z,29.38
2023-05-19T11:00:17.970Z,29.68
2023-05-19T11:01:18.019Z,29.27
2023-05-19T11:02:18.066Z,29.35
2023-05-19T11:03:17.937Z,29.74
2023-05-19T11:04:17.950Z,30.15
2023-05-19T11:05:17.909Z,30.23
2023-05-19T11:06:17.896Z,29.01
2023-05-19T11:07:17.884Z,28.60
2023-05-19T11:08:17.890Z,28.61
2023-05-19T11:09:17.991Z,28.45
2023-05-19T11:10:17.874Z,29.32
2023-05-19T11:11:17.838Z,28.50
2023-05-19T11:12:17.823Z,27.78
2023-05-19T11:13:17.809Z,28.61
2023-05-19T11:14:17.800Z,29.86
2023-05-19T11:15:17.782Z,29.84
2023-05-19T11:16:17.777Z,29.73
2023-05-19T11:17:17.761Z,28.74
2023-05-19T11:18:17.766Z,28.97
2023-05-19T11:19:17.800Z,30.17
2023-05-19T11:20:17.734Z,30.63
2023-05-19T11:21:17.730Z,30.63
2023-05-19T11:22:17.708Z,29.51
2023-05-19T11:23:17.751Z,28.61
2023-05-19T11:24:17.701Z,28.69
2023-05-19T11:25:17.667Z,27.80
2023-05-19T11:26:17.676Z,28.14
2023-05-19T11:27:17.662Z,28.64
2023-05-19T11:28:17.656Z,28.86
2023-05-19T11:29:17.616Z,29.27
2023-05-19T11:30:17.620Z,29.56
2023-05-19T11:31:17.586Z,28.84
2023-05-19T11:32:17.599Z,27.94
2023-05-19T11:33:17.594Z,27.92
2023-05-19T11:34:17.552Z,28.02
2023-05-19T11:35:17.544Z,27.43
2023-05-19T11:36:17.546Z,27.94
2023-05-19T11:37:17.538Z,27.84
2023-05-19T11:38:17.503Z,27.73
2023-05-19T11:39:17.501Z,27.73
2023-05-19T11:40:17.496Z,27.31
2023-05-19T11:41:18.879Z,27.60
2023-05-19T11:42:17.513Z,27.91
2023-05-19T11:43:17.453Z,28.74
2023-05-19T11:44:17.429Z,28.53
2023-05-19T11:45:17.416Z,28.39
2023-05-19T11:46:17.422Z,27.16
2023-05-19T11:47:17.389Z,27.25
2023-05-19T11:48:17.570Z,27.07
2023-05-19T11:49:17.368Z,28.39
2023-05-19T11:50:17.357Z,28.80
2023-05-19T11:51:17.344Z,29.32
2023-05-19T11:52:17.343Z,29.14
2023-05-19T11:53:17.319Z,29.25
2023-05-19T11:54:17.307Z,29.63
2023-05-19T11:55:17.295Z,29.32
2023-05-19T11:56:17.282Z,29.32
2023-05-19T11:57:17.277Z,29.21
2023-05-19T11:58:17.650Z,29.91
2023-05-19T11:59:17.243Z,29.51
2023-05-19T12:00:17.244Z,29.10
2023-05-19T12:01:17.224Z,28.90
2023-05-19T12:02:17.239Z,28.80
2023-05-19T12:03:17.627Z,28.70
2023-05-19T12:04:17.182Z,28.00
2023-05-19T12:05:17.278Z,27.69
2023-05-19T12:06:17.243Z,27.38
2023-05-19T12:08:17.133Z,27.00
2023-05-19T12:09:17.119Z,27.61
2023-05-19T12:10:17.106Z,28.64
2023-05-19T12:11:18.204Z,29.04
2023-05-19T12:12:17.172Z,29.77
2023-05-19T12:13:17.073Z,30.31
2023-05-19T12:14:17.098Z,30.82
2023-05-19T12:15:17.074Z,30.94
2023-05-19T12:16:17.076Z,31.25
2023-05-19T12:17:17.076Z,30.61
2023-05-19T12:18:17.007Z,29.96
2023-05-19T12:19:17.046Z,28.82
2023-05-19T12:20:16.992Z,27.72
2023-05-19T12:21:16.977Z,28.11
2023-05-19T12:22:16.956Z,27.89
2023-05-19T12:23:16.946Z,28.22
2023-05-19T12:24:16.931Z,28.55
2023-05-19T12:25:16.944Z,29.46
2023-05-19T12:26:16.913Z,30.60
2023-05-19T12:27:16.894Z,31.52
2023-05-19T12:28:16.883Z,31.65
2023-05-19T12:29:16.869Z,32.14
2023-05-19T12:30:16.891Z,31.19
2023-05-19T12:31:16.893Z,29.37
2023-05-19T12:32:16.833Z,29.31
2023-05-19T12:33:16.858Z,28.36
2023-05-19T12:34:16.810Z,26.54
2023-05-19T12:35:16.790Z,26.93
2023-05-19T12:36:16.786Z,26.82
2023-05-19T12:37:16.782Z,27.41
2023-05-19T12:38:16.764Z,27.60
2023-05-19T12:39:16.761Z,27.00
2023-05-19T12:40:16.738Z,26.82
2023-05-19T12:41:16.723Z,27.83
2023-05-19T12:42:16.714Z,28.64
2023-05-19T12:43:16.696Z,28.47
2023-05-19T12:44:16.696Z,28.88
2023-05-19T12:45:16.673Z,29.43
2023-05-19T12:46:16.743Z,30.55
2023-05-19T12:47:16.648Z,30.67
2023-05-19T12:48:16.702Z,30.37
2023-05-19T12:49:16.629Z,30.57
2023-05-19T12:50:16.614Z,31.26
2023-05-19T12:51:16.598Z,31.77
2023-05-19T12:52:16.590Z,32.18
2023-05-19T12:53:16.573Z,32.28
2023-05-19T12:54:16.590Z,32.17
2023-05-19T12:55:16.555Z,31.95
2023-05-19T12:56:16.539Z,31.75
2023-05-19T12:57:16.524Z,31.34
2023-05-19T12:58:16.515Z,31.32
2023-05-19T12:59:21.178Z,31.03